RYR80KA LIBP-EBCI
Flight info
| Callsign | RYR80KA |
|---|---|
| Flight time | 1h 47m |
| Altitude | 36000 |
| Route | INKIM Y579 LAPVO SOTOV KPT L608 TEDGO IDOVI Z104 GESLO N852 LNO |
| Aircraft | B38M/M-SDE1FGHILORVWXY/HB1 |
Departure
| Time | 2026-04-26 11:03 |
|---|---|
| Airport | Abruzzo Airport (LIBP) |
Arrival
| Time | 2026-04-26 12:50 |
|---|---|
| Airport | Brussels South Charleroi Airport (EBCI) |
| Time | Latitude | Longitude | Altitude | Speed | Heading |
|---|---|---|---|---|---|
| 2026-04-26 10:33 | 42.43004 | 14.18691 | 50 ft | 0 kts | 128° |
| 2026-04-26 10:52 | 42.43009 | 14.18684 | 50 ft | 2 kts | 129° |
| 2026-04-26 10:52 | 42.43019 | 14.18667 | 50 ft | 2 kts | 132° |
| 2026-04-26 10:52 | 42.43031 | 14.18651 | 50 ft | 2 kts | 143° |
| 2026-04-26 10:53 | 42.43046 | 14.18644 | 49 ft | 2 kts | 200° |
| 2026-04-26 10:53 | 42.43060 | 14.18656 | 50 ft | 2 kts | 217° |
| 2026-04-26 10:53 | 42.43071 | 14.18666 | 50 ft | 1 kts | 217° |
| 2026-04-26 10:54 | 42.43071 | 14.18667 | 50 ft | 0 kts | 217° |
| 2026-04-26 10:57 | 42.43069 | 14.18665 | 50 ft | 1 kts | 217° |
| 2026-04-26 10:57 | 42.43059 | 14.18655 | 50 ft | 2 kts | 216° |
| 2026-04-26 10:57 | 42.43037 | 14.18633 | 50 ft | 5 kts | 220° |
| 2026-04-26 10:57 | 42.43023 | 14.18582 | 50 ft | 7 kts | 261° |
| 2026-04-26 10:58 | 42.43015 | 14.18514 | 50 ft | 8 kts | 261° |
| 2026-04-26 10:58 | 42.42987 | 14.18441 | 50 ft | 10 kts | 222° |
| 2026-04-26 10:58 | 42.42929 | 14.18380 | 47 ft | 11 kts | 217° |
| 2026-04-26 10:58 | 42.42862 | 14.18311 | 48 ft | 13 kts | 217° |
| 2026-04-26 10:59 | 42.42787 | 14.18234 | 49 ft | 14 kts | 217° |
| 2026-04-26 10:59 | 42.42705 | 14.18149 | 49 ft | 16 kts | 218° |
| 2026-04-26 10:59 | 42.42615 | 14.18055 | 49 ft | 17 kts | 218° |
| 2026-04-26 10:59 | 42.42517 | 14.17955 | 50 ft | 18 kts | 217° |
| 2026-04-26 11:00 | 42.42418 | 14.17852 | 49 ft | 17 kts | 217° |
| 2026-04-26 11:00 | 42.42335 | 14.17767 | 50 ft | 13 kts | 217° |
| 2026-04-26 11:00 | 42.42284 | 14.17709 | 49 ft | 9 kts | 232° |
| 2026-04-26 11:00 | 42.42272 | 14.17625 | 50 ft | 10 kts | 265° |
| 2026-04-26 11:01 | 42.42267 | 14.17536 | 50 ft | 7 kts | 269° |
| 2026-04-26 11:01 | 42.42279 | 14.17483 | 49 ft | 4 kts | 304° |
| 2026-04-26 11:01 | 42.42293 | 14.17459 | 49 ft | 2 kts | 309° |
| 2026-04-26 11:01 | 42.42307 | 14.17452 | 49 ft | 2 kts | 4° |
| 2026-04-26 11:02 | 42.42316 | 14.17458 | 49 ft | 2 kts | 31° |
| 2026-04-26 11:02 | 42.42322 | 14.17464 | 49 ft | 0 kts | 36° |
| 2026-04-26 11:03 | 42.42452 | 14.17598 | 50 ft | 62 kts | 38° |
| 2026-04-26 11:03 | 42.42784 | 14.17942 | 50 ft | 114 kts | 38° |
| 2026-04-26 11:03 | 42.43591 | 14.18777 | 98 ft | 171 kts | 38° |
| 2026-04-26 11:03 | 42.44527 | 14.19760 | 927 ft | 170 kts | 38° |
| 2026-04-26 11:04 | 42.45515 | 14.20662 | 1851 ft | 173 kts | 33° |
| 2026-04-26 11:04 | 42.46575 | 14.21572 | 2476 ft | 190 kts | 33° |
| 2026-04-26 11:04 | 42.47717 | 14.22557 | 3243 ft | 193 kts | 32° |
| 2026-04-26 11:04 | 42.48857 | 14.23543 | 3899 ft | 199 kts | 30° |
| 2026-04-26 11:05 | 42.50143 | 14.24244 | 4587 ft | 199 kts | 9° |
| 2026-04-26 11:05 | 42.51561 | 14.24217 | 5058 ft | 215 kts | 347° |
| 2026-04-26 11:05 | 42.53105 | 14.23793 | 5458 ft | 237 kts | 348° |
| 2026-04-26 11:05 | 42.54774 | 14.23380 | 5907 ft | 257 kts | 349° |
| 2026-04-26 11:06 | 42.56591 | 14.22943 | 6078 ft | 272 kts | 349° |
| 2026-04-26 11:06 | 42.58472 | 14.22498 | 6818 ft | 272 kts | 349° |
| 2026-04-26 11:06 | 42.60354 | 14.22050 | 7648 ft | 278 kts | 349° |
| 2026-04-26 11:06 | 42.62269 | 14.21596 | 8505 ft | 280 kts | 349° |
| 2026-04-26 11:07 | 42.64204 | 14.21137 | 9294 ft | 284 kts | 349° |
| 2026-04-26 11:07 | 42.66165 | 14.20672 | 10065 ft | 288 kts | 349° |
| 2026-04-26 11:07 | 42.68140 | 14.20205 | 10710 ft | 297 kts | 349° |
| 2026-04-26 11:07 | 42.70253 | 14.19706 | 11030 ft | 317 kts | 349° |
| 2026-04-26 11:08 | 42.72488 | 14.19178 | 11333 ft | 334 kts | 349° |
| 2026-04-26 11:08 | 42.74832 | 14.18622 | 11757 ft | 347 kts | 349° |
| 2026-04-26 11:08 | 42.77187 | 14.18060 | 12535 ft | 347 kts | 349° |
| 2026-04-26 11:08 | 42.79594 | 14.17484 | 13225 ft | 351 kts | 349° |
| 2026-04-26 11:09 | 42.82014 | 14.16904 | 13925 ft | 354 kts | 349° |
| 2026-04-26 11:09 | 42.84400 | 14.16062 | 14603 ft | 356 kts | 337° |
| 2026-04-26 11:09 | 42.86689 | 14.14728 | 15262 ft | 359 kts | 336° |
| 2026-04-26 11:09 | 42.89001 | 14.13398 | 15943 ft | 361 kts | 336° |
| 2026-04-26 11:10 | 42.91322 | 14.12058 | 16574 ft | 364 kts | 336° |
| 2026-04-26 11:10 | 42.93630 | 14.10724 | 17196 ft | 366 kts | 336° |
| 2026-04-26 11:10 | 42.95986 | 14.09359 | 17789 ft | 369 kts | 336° |
| 2026-04-26 11:10 | 42.98362 | 14.07983 | 18389 ft | 371 kts | 336° |
| 2026-04-26 11:11 | 43.00757 | 14.06594 | 18931 ft | 374 kts | 336° |
| 2026-04-26 11:11 | 43.03169 | 14.05195 | 19440 ft | 378 kts | 336° |
| 2026-04-26 11:11 | 43.05570 | 14.03799 | 19946 ft | 381 kts | 336° |
| 2026-04-26 11:11 | 43.08022 | 14.02374 | 20452 ft | 384 kts | 336° |
| 2026-04-26 11:12 | 43.10497 | 14.00933 | 20918 ft | 387 kts | 337° |
| 2026-04-26 11:12 | 43.12996 | 13.99478 | 21394 ft | 390 kts | 337° |
| 2026-04-26 11:12 | 43.15515 | 13.98009 | 21838 ft | 394 kts | 337° |
| 2026-04-26 11:12 | 43.18047 | 13.96531 | 22303 ft | 397 kts | 337° |
| 2026-04-26 11:13 | 43.20563 | 13.95063 | 22746 ft | 399 kts | 337° |
| 2026-04-26 11:13 | 43.23131 | 13.93561 | 23167 ft | 402 kts | 337° |
| 2026-04-26 11:13 | 43.25717 | 13.92048 | 23589 ft | 405 kts | 337° |
| 2026-04-26 11:13 | 43.28317 | 13.90525 | 24004 ft | 407 kts | 337° |
| 2026-04-26 11:14 | 43.30945 | 13.88985 | 24404 ft | 410 kts | 337° |
| 2026-04-26 11:14 | 43.33560 | 13.87378 | 24813 ft | 412 kts | 333° |
| 2026-04-26 11:14 | 43.36119 | 13.85574 | 25248 ft | 413 kts | 333° |
| 2026-04-26 11:14 | 43.38691 | 13.83783 | 25623 ft | 416 kts | 333° |
| 2026-04-26 11:15 | 43.41256 | 13.82009 | 25984 ft | 418 kts | 333° |
| 2026-04-26 11:15 | 43.43863 | 13.80208 | 26344 ft | 420 kts | 333° |
| 2026-04-26 11:15 | 43.46483 | 13.78400 | 26706 ft | 422 kts | 333° |
| 2026-04-26 11:15 | 43.49113 | 13.76582 | 27062 ft | 424 kts | 333° |
| 2026-04-26 11:16 | 43.51757 | 13.74754 | 27405 ft | 425 kts | 333° |
| 2026-04-26 11:16 | 43.54405 | 13.72920 | 27725 ft | 427 kts | 333° |
| 2026-04-26 11:16 | 43.57070 | 13.71073 | 28061 ft | 429 kts | 333° |
| 2026-04-26 11:16 | 43.59748 | 13.69216 | 28377 ft | 431 kts | 333° |
| 2026-04-26 11:17 | 43.62431 | 13.67352 | 28704 ft | 432 kts | 333° |
| 2026-04-26 11:17 | 43.65093 | 13.65502 | 28988 ft | 434 kts | 333° |
| 2026-04-26 11:17 | 43.67803 | 13.63617 | 29272 ft | 436 kts | 333° |
| 2026-04-26 11:17 | 43.70526 | 13.61721 | 29545 ft | 438 kts | 333° |
| 2026-04-26 11:18 | 43.73259 | 13.59815 | 29823 ft | 440 kts | 333° |
| 2026-04-26 11:18 | 43.76002 | 13.57900 | 30128 ft | 441 kts | 333° |
| 2026-04-26 11:18 | 43.78744 | 13.55985 | 30423 ft | 442 kts | 333° |
| 2026-04-26 11:18 | 43.81458 | 13.54088 | 30765 ft | 441 kts | 333° |
| 2026-04-26 11:19 | 43.84201 | 13.52166 | 31135 ft | 440 kts | 332° |
| 2026-04-26 11:19 | 43.86935 | 13.50250 | 31516 ft | 439 kts | 332° |
| 2026-04-26 11:19 | 43.89671 | 13.48331 | 31875 ft | 438 kts | 332° |
| 2026-04-26 11:19 | 43.92385 | 13.46426 | 32238 ft | 436 kts | 332° |
| 2026-04-26 11:20 | 43.95059 | 13.44546 | 32577 ft | 435 kts | 332° |
| 2026-04-26 11:20 | 43.96859 | 13.43280 | 32806 ft | 434 kts | 332° |
| 2026-04-26 11:20 | 44.00460 | 13.40744 | 33228 ft | 433 kts | 332° |
| 2026-04-26 11:20 | 44.03145 | 13.38850 | 33559 ft | 432 kts | 332° |
| 2026-04-26 11:21 | 44.05824 | 13.36960 | 33845 ft | 431 kts | 332° |
| 2026-04-26 11:21 | 44.08470 | 13.35090 | 34123 ft | 431 kts | 332° |
| 2026-04-26 11:21 | 44.11150 | 13.33195 | 34402 ft | 430 kts | 332° |
| 2026-04-26 11:21 | 44.13824 | 13.31301 | 34669 ft | 430 kts | 332° |
| 2026-04-26 11:22 | 44.16498 | 13.29405 | 34906 ft | 430 kts | 332° |
| 2026-04-26 11:22 | 44.19140 | 13.27532 | 35112 ft | 430 kts | 332° |
| 2026-04-26 11:22 | 44.21817 | 13.25630 | 35316 ft | 431 kts | 332° |
| 2026-04-26 11:22 | 44.24495 | 13.23727 | 35535 ft | 431 kts | 332° |
| 2026-04-26 11:23 | 44.27163 | 13.21828 | 35745 ft | 431 kts | 332° |
| 2026-04-26 11:23 | 44.29850 | 13.19914 | 35921 ft | 432 kts | 332° |
| 2026-04-26 11:23 | 44.32501 | 13.18024 | 36120 ft | 432 kts | 332° |
| 2026-04-26 11:23 | 44.35179 | 13.16111 | 36244 ft | 432 kts | 332° |
| 2026-04-26 11:24 | 44.40537 | 13.12280 | 36237 ft | 430 kts | 332° |
| 2026-04-26 11:24 | 44.45859 | 13.08469 | 36240 ft | 432 kts | 332° |
| 2026-04-26 11:25 | 44.51218 | 13.04621 | 36236 ft | 432 kts | 332° |
| 2026-04-26 11:25 | 44.56576 | 13.00767 | 36239 ft | 432 kts | 332° |
| 2026-04-26 11:26 | 44.61928 | 12.96909 | 36239 ft | 432 kts | 332° |
| 2026-04-26 11:26 | 44.67249 | 12.93065 | 36240 ft | 433 kts | 332° |
| 2026-04-26 11:27 | 44.72616 | 12.89180 | 36236 ft | 433 kts | 332° |
| 2026-04-26 11:27 | 44.77980 | 12.85289 | 36239 ft | 434 kts | 332° |
| 2026-04-26 11:28 | 44.83317 | 12.81408 | 36239 ft | 433 kts | 332° |
| 2026-04-26 11:28 | 44.88687 | 12.77497 | 36239 ft | 433 kts | 332° |
| 2026-04-26 11:29 | 44.94021 | 12.73603 | 36239 ft | 434 kts | 332° |
| 2026-04-26 11:29 | 44.99389 | 12.69676 | 36239 ft | 434 kts | 332° |
| 2026-04-26 11:30 | 45.03855 | 12.66402 | 36239 ft | 434 kts | 332° |
| 2026-04-26 11:30 | 45.10125 | 12.61796 | 36240 ft | 435 kts | 332° |
| 2026-04-26 11:31 | 45.15339 | 12.57958 | 36240 ft | 435 kts | 332° |
| 2026-04-26 11:31 | 45.20727 | 12.53983 | 36239 ft | 436 kts | 332° |
| 2026-04-26 11:32 | 45.26100 | 12.50010 | 36239 ft | 435 kts | 332° |
| 2026-04-26 11:32 | 45.31483 | 12.46021 | 36238 ft | 435 kts | 332° |
| 2026-04-26 11:33 | 45.36837 | 12.42046 | 36239 ft | 436 kts | 332° |
| 2026-04-26 11:33 | 45.42200 | 12.38054 | 36240 ft | 436 kts | 332° |
| 2026-04-26 11:34 | 45.47597 | 12.34030 | 36237 ft | 437 kts | 332° |
| 2026-04-26 11:34 | 45.52949 | 12.30029 | 36239 ft | 437 kts | 332° |
| 2026-04-26 11:35 | 45.58345 | 12.25987 | 36236 ft | 437 kts | 332° |
| 2026-04-26 11:35 | 45.62821 | 12.22628 | 36225 ft | 437 kts | 332° |
| 2026-04-26 11:36 | 45.69086 | 12.17916 | 36219 ft | 437 kts | 332° |
| 2026-04-26 11:36 | 45.74476 | 12.13852 | 36217 ft | 437 kts | 332° |
| 2026-04-26 11:37 | 45.79873 | 12.09774 | 36240 ft | 437 kts | 332° |
| 2026-04-26 11:37 | 45.85244 | 12.05707 | 36252 ft | 438 kts | 332° |
| 2026-04-26 11:38 | 45.90656 | 12.01600 | 36283 ft | 438 kts | 332° |
| 2026-04-26 11:38 | 45.96012 | 11.97525 | 36305 ft | 438 kts | 332° |
| 2026-04-26 11:39 | 46.01420 | 11.93403 | 36311 ft | 438 kts | 332° |
| 2026-04-26 11:39 | 46.06810 | 11.89285 | 36323 ft | 437 kts | 332° |
| 2026-04-26 11:40 | 46.12157 | 11.85190 | 36346 ft | 438 kts | 332° |
| 2026-04-26 11:40 | 46.17537 | 11.81062 | 36357 ft | 437 kts | 332° |
| 2026-04-26 11:42 | 46.38980 | 11.64514 | 36357 ft | 436 kts | 332° |
| 2026-04-26 11:43 | 46.44327 | 11.60364 | 36321 ft | 435 kts | 332° |
| 2026-04-26 11:43 | 46.49640 | 11.56231 | 36265 ft | 435 kts | 332° |
| 2026-04-26 11:44 | 46.54988 | 11.52063 | 36229 ft | 435 kts | 332° |
| 2026-04-26 11:44 | 46.60314 | 11.47902 | 36212 ft | 434 kts | 332° |
| 2026-04-26 11:45 | 46.65604 | 11.43762 | 36208 ft | 433 kts | 332° |
| 2026-04-26 11:45 | 46.70914 | 11.39597 | 36210 ft | 433 kts | 332° |
| 2026-04-26 11:46 | 46.76190 | 11.35450 | 36215 ft | 432 kts | 332° |
| 2026-04-26 11:46 | 46.81488 | 11.31276 | 36223 ft | 432 kts | 332° |
| 2026-04-26 11:47 | 46.86747 | 11.27123 | 36235 ft | 431 kts | 332° |
| 2026-04-26 11:47 | 46.92024 | 11.22947 | 36248 ft | 431 kts | 332° |
| 2026-04-26 11:48 | 46.97058 | 11.18219 | 36265 ft | 430 kts | 325° |
| 2026-04-26 11:48 | 47.01931 | 11.13098 | 36261 ft | 430 kts | 325° |
| 2026-04-26 11:49 | 47.05970 | 11.08828 | 36288 ft | 430 kts | 325° |
| 2026-04-26 11:49 | 47.11607 | 11.02851 | 36271 ft | 429 kts | 325° |
| 2026-04-26 11:50 | 47.15661 | 10.98543 | 36269 ft | 429 kts | 325° |
| 2026-04-26 11:50 | 47.20466 | 10.93427 | 36284 ft | 428 kts | 325° |
| 2026-04-26 11:51 | 47.25301 | 10.88266 | 36288 ft | 428 kts | 325° |
| 2026-04-26 11:51 | 47.30131 | 10.83100 | 36299 ft | 428 kts | 325° |
| 2026-04-26 11:52 | 47.34916 | 10.77968 | 36303 ft | 427 kts | 325° |
| 2026-04-26 11:52 | 47.39723 | 10.72802 | 36315 ft | 426 kts | 325° |
| 2026-04-26 11:53 | 47.44530 | 10.67624 | 36320 ft | 426 kts | 325° |
| 2026-04-26 11:54 | 47.51698 | 10.59881 | 36325 ft | 426 kts | 325° |
| 2026-04-26 11:54 | 47.56482 | 10.54697 | 36335 ft | 425 kts | 325° |
| 2026-04-26 11:55 | 47.61223 | 10.49549 | 36340 ft | 424 kts | 325° |
| 2026-04-26 11:55 | 47.65979 | 10.44373 | 36339 ft | 424 kts | 325° |
| 2026-04-26 11:56 | 47.70733 | 10.39189 | 36340 ft | 423 kts | 325° |
| 2026-04-26 11:56 | 47.75418 | 10.33880 | 36339 ft | 423 kts | 322° |
| 2026-04-26 11:57 | 47.79941 | 10.28335 | 36335 ft | 423 kts | 322° |
| 2026-04-26 11:57 | 47.84499 | 10.22784 | 36349 ft | 423 kts | 322° |
| 2026-04-26 11:58 | 47.89056 | 10.17226 | 36346 ft | 423 kts | 322° |
| 2026-04-26 11:58 | 47.93608 | 10.11665 | 36347 ft | 422 kts | 322° |
| 2026-04-26 11:59 | 47.98128 | 10.06126 | 36348 ft | 422 kts | 322° |
| 2026-04-26 11:59 | 48.02640 | 10.00584 | 36347 ft | 422 kts | 322° |
| 2026-04-26 12:00 | 48.07182 | 9.94994 | 36352 ft | 422 kts | 322° |
| 2026-04-26 12:00 | 48.11715 | 9.89403 | 36349 ft | 422 kts | 322° |
| 2026-04-26 12:01 | 48.16219 | 9.83832 | 36349 ft | 422 kts | 322° |
| 2026-04-26 12:01 | 48.20749 | 9.78217 | 36349 ft | 422 kts | 322° |
| 2026-04-26 12:02 | 48.25240 | 9.72637 | 36353 ft | 421 kts | 322° |
| 2026-04-26 12:02 | 48.29756 | 9.67012 | 36337 ft | 421 kts | 322° |
| 2026-04-26 12:03 | 48.34259 | 9.61364 | 36338 ft | 421 kts | 321° |
| 2026-04-26 12:03 | 48.38695 | 9.55690 | 36341 ft | 420 kts | 321° |
| 2026-04-26 12:04 | 48.43148 | 9.49989 | 36336 ft | 420 kts | 321° |
| 2026-04-26 12:04 | 48.47604 | 9.44275 | 36327 ft | 419 kts | 321° |
| 2026-04-26 12:05 | 48.52015 | 9.38603 | 36326 ft | 418 kts | 321° |
| 2026-04-26 12:05 | 48.56448 | 9.32891 | 36321 ft | 418 kts | 321° |
| 2026-04-26 12:06 | 48.60862 | 9.27190 | 36315 ft | 417 kts | 321° |
| 2026-04-26 12:06 | 48.65277 | 9.21471 | 36322 ft | 417 kts | 321° |
| 2026-04-26 12:07 | 48.69689 | 9.15744 | 36314 ft | 417 kts | 321° |
| 2026-04-26 12:07 | 48.74094 | 9.10011 | 36320 ft | 417 kts | 321° |
| 2026-04-26 12:08 | 48.78467 | 9.04307 | 36315 ft | 416 kts | 321° |
| 2026-04-26 12:08 | 48.82869 | 8.98552 | 36329 ft | 416 kts | 321° |
| 2026-04-26 12:09 | 48.87235 | 8.92829 | 36335 ft | 416 kts | 321° |
| 2026-04-26 12:09 | 48.91615 | 8.87075 | 36337 ft | 416 kts | 321° |
| 2026-04-26 12:10 | 48.95994 | 8.81308 | 36336 ft | 416 kts | 321° |
| 2026-04-26 12:10 | 49.00380 | 8.75518 | 36339 ft | 415 kts | 321° |
| 2026-04-26 12:11 | 49.04713 | 8.69783 | 36345 ft | 415 kts | 321° |
| 2026-04-26 12:11 | 49.09082 | 8.63988 | 36347 ft | 415 kts | 321° |
| 2026-04-26 12:12 | 49.13411 | 8.58231 | 36353 ft | 415 kts | 321° |
| 2026-04-26 12:12 | 49.17764 | 8.52428 | 36359 ft | 415 kts | 320° |
| 2026-04-26 12:13 | 49.22100 | 8.46635 | 36363 ft | 413 kts | 321° |
| 2026-04-26 12:13 | 49.26444 | 8.40817 | 36366 ft | 414 kts | 320° |
| 2026-04-26 12:14 | 49.30745 | 8.35042 | 36365 ft | 413 kts | 320° |
| 2026-04-26 12:14 | 49.35074 | 8.29214 | 36368 ft | 412 kts | 320° |
| 2026-04-26 12:15 | 49.39398 | 8.23381 | 36367 ft | 413 kts | 320° |
| 2026-04-26 12:15 | 49.43712 | 8.17547 | 36368 ft | 412 kts | 320° |
| 2026-04-26 12:16 | 49.47988 | 8.11749 | 36363 ft | 412 kts | 320° |
| 2026-04-26 12:16 | 49.52289 | 8.05903 | 36373 ft | 411 kts | 320° |
| 2026-04-26 12:17 | 49.56578 | 8.00059 | 36375 ft | 411 kts | 320° |
| 2026-04-26 12:17 | 49.60843 | 7.94234 | 36372 ft | 411 kts | 320° |
| 2026-04-26 12:18 | 49.65126 | 7.88370 | 36377 ft | 412 kts | 320° |
| 2026-04-26 12:18 | 49.69424 | 7.82472 | 36371 ft | 411 kts | 320° |
| 2026-04-26 12:19 | 49.73675 | 7.76624 | 36369 ft | 411 kts | 320° |
| 2026-04-26 12:19 | 49.77954 | 7.70721 | 36370 ft | 411 kts | 320° |
| 2026-04-26 12:20 | 49.82202 | 7.64848 | 36367 ft | 411 kts | 320° |
| 2026-04-26 12:20 | 49.86479 | 7.58920 | 36383 ft | 412 kts | 320° |
| 2026-04-26 12:21 | 49.90748 | 7.52988 | 36388 ft | 412 kts | 320° |
| 2026-04-26 12:21 | 49.94998 | 7.47071 | 36378 ft | 412 kts | 320° |
| 2026-04-26 12:22 | 49.99282 | 7.41094 | 36377 ft | 412 kts | 320° |
| 2026-04-26 12:22 | 50.03547 | 7.35127 | 36385 ft | 411 kts | 319° |
| 2026-04-26 12:23 | 50.07029 | 7.28219 | 36373 ft | 415 kts | 294° |
| 2026-04-26 12:23 | 50.07766 | 7.23839 | 36379 ft | 423 kts | 282° |
| 2026-04-26 12:23 | 50.08094 | 7.19247 | 36379 ft | 427 kts | 280° |
| 2026-04-26 12:24 | 50.08592 | 7.10084 | 36374 ft | 428 kts | 278° |
| 2026-04-26 12:24 | 50.09003 | 7.00824 | 36380 ft | 430 kts | 278° |
| 2026-04-26 12:25 | 50.09470 | 6.86838 | 36373 ft | 433 kts | 272° |
| 2026-04-26 12:25 | 50.09331 | 6.77446 | 36382 ft | 434 kts | 273° |
| 2026-04-26 12:26 | 50.09232 | 6.72766 | 36164 ft | 428 kts | 272° |
| 2026-04-26 12:26 | 50.09130 | 6.68149 | 35413 ft | 425 kts | 272° |
| 2026-04-26 12:26 | 50.09032 | 6.63547 | 34562 ft | 421 kts | 272° |
| 2026-04-26 12:26 | 50.08936 | 6.59023 | 33356 ft | 425 kts | 272° |
| 2026-04-26 12:27 | 50.08836 | 6.54385 | 31896 ft | 434 kts | 271° |
| 2026-04-26 12:27 | 50.08731 | 6.49624 | 30553 ft | 440 kts | 271° |
| 2026-04-26 12:27 | 50.08623 | 6.44872 | 29562 ft | 435 kts | 271° |
| 2026-04-26 12:27 | 50.08515 | 6.40174 | 28609 ft | 430 kts | 270° |
| 2026-04-26 12:28 | 50.08409 | 6.35620 | 27741 ft | 424 kts | 270° |
| 2026-04-26 12:28 | 50.08299 | 6.31047 | 26888 ft | 417 kts | 270° |
| 2026-04-26 12:28 | 50.08191 | 6.26562 | 26043 ft | 410 kts | 270° |
| 2026-04-26 12:28 | 50.08083 | 6.22210 | 25217 ft | 404 kts | 270° |
| 2026-04-26 12:29 | 50.07978 | 6.17870 | 24375 ft | 398 kts | 270° |
| 2026-04-26 12:29 | 50.07873 | 6.13600 | 23554 ft | 392 kts | 271° |
| 2026-04-26 12:29 | 50.08356 | 6.05380 | 21947 ft | 373 kts | 293° |
| 2026-04-26 12:30 | 50.09652 | 6.01953 | 21217 ft | 364 kts | 310° |
| 2026-04-26 12:30 | 50.11512 | 5.99374 | 20421 ft | 362 kts | 325° |
| 2026-04-26 12:30 | 50.13745 | 5.97592 | 19620 ft | 360 kts | 333° |
| 2026-04-26 12:31 | 50.18261 | 5.94416 | 18169 ft | 347 kts | 323° |
| 2026-04-26 12:31 | 50.19996 | 5.91961 | 18129 ft | 330 kts | 308° |
| 2026-04-26 12:31 | 50.21222 | 5.89010 | 18022 ft | 319 kts | 296° |
| 2026-04-26 12:31 | 50.21960 | 5.85800 | 17919 ft | 311 kts | 285° |
| 2026-04-26 12:32 | 50.22481 | 5.82490 | 17762 ft | 323 kts | 286° |
| 2026-04-26 12:32 | 50.23049 | 5.79046 | 17635 ft | 329 kts | 286° |
| 2026-04-26 12:32 | 50.24225 | 5.72063 | 17402 ft | 333 kts | 286° |
| 2026-04-26 12:33 | 50.24815 | 5.68574 | 17300 ft | 333 kts | 286° |
| 2026-04-26 12:33 | 50.25405 | 5.65076 | 17196 ft | 332 kts | 286° |
| 2026-04-26 12:33 | 50.25989 | 5.61616 | 17106 ft | 332 kts | 286° |
| 2026-04-26 12:33 | 50.26576 | 5.58123 | 17009 ft | 332 kts | 286° |
| 2026-04-26 12:34 | 50.27163 | 5.54622 | 16854 ft | 332 kts | 286° |
| 2026-04-26 12:34 | 50.27751 | 5.51116 | 16563 ft | 330 kts | 286° |
| 2026-04-26 12:34 | 50.28324 | 5.47688 | 16217 ft | 329 kts | 286° |
| 2026-04-26 12:34 | 50.28899 | 5.44235 | 15846 ft | 328 kts | 286° |
| 2026-04-26 12:35 | 50.29474 | 5.40781 | 15473 ft | 326 kts | 285° |
| 2026-04-26 12:35 | 50.30043 | 5.37351 | 15102 ft | 324 kts | 285° |
| 2026-04-26 12:35 | 50.30607 | 5.33945 | 14727 ft | 321 kts | 285° |
| 2026-04-26 12:35 | 50.31154 | 5.30625 | 14376 ft | 318 kts | 285° |
| 2026-04-26 12:36 | 50.31705 | 5.27282 | 14011 ft | 315 kts | 285° |
| 2026-04-26 12:36 | 50.32249 | 5.23973 | 13655 ft | 313 kts | 285° |
| 2026-04-26 12:36 | 50.32789 | 5.20690 | 13294 ft | 311 kts | 285° |
| 2026-04-26 12:36 | 50.33144 | 5.18524 | 13054 ft | 309 kts | 285° |
| 2026-04-26 12:37 | 50.33675 | 5.15277 | 12705 ft | 307 kts | 284° |
| 2026-04-26 12:37 | 50.34384 | 5.10960 | 12087 ft | 310 kts | 285° |
| 2026-04-26 12:37 | 50.34746 | 5.08747 | 11763 ft | 311 kts | 285° |
| 2026-04-26 12:37 | 50.35281 | 5.05471 | 11357 ft | 309 kts | 284° |
| 2026-04-26 12:38 | 50.35811 | 5.02213 | 11050 ft | 306 kts | 284° |
| 2026-04-26 12:38 | 50.36318 | 4.99072 | 10907 ft | 297 kts | 284° |
| 2026-04-26 12:38 | 50.36817 | 4.95978 | 10769 ft | 289 kts | 284° |
| 2026-04-26 12:38 | 50.37302 | 4.92950 | 10624 ft | 283 kts | 284° |
| 2026-04-26 12:39 | 50.37779 | 4.89991 | 10477 ft | 276 kts | 284° |
| 2026-04-26 12:39 | 50.38239 | 4.87122 | 10360 ft | 268 kts | 284° |
| 2026-04-26 12:39 | 50.38687 | 4.84330 | 10220 ft | 259 kts | 284° |
| 2026-04-26 12:39 | 50.39119 | 4.81636 | 10102 ft | 251 kts | 284° |
| 2026-04-26 12:40 | 50.39547 | 4.78963 | 9780 ft | 255 kts | 284° |
| 2026-04-26 12:40 | 50.39979 | 4.76280 | 9497 ft | 259 kts | 284° |
| 2026-04-26 12:40 | 50.40424 | 4.73513 | 9232 ft | 263 kts | 283° |
| 2026-04-26 12:40 | 50.40870 | 4.70724 | 8974 ft | 265 kts | 284° |
| 2026-04-26 12:41 | 50.41321 | 4.67912 | 8665 ft | 266 kts | 284° |
| 2026-04-26 12:41 | 50.41771 | 4.65100 | 8375 ft | 265 kts | 283° |
| 2026-04-26 12:41 | 50.42215 | 4.62308 | 8079 ft | 264 kts | 284° |
| 2026-04-26 12:41 | 50.42655 | 4.59540 | 7804 ft | 263 kts | 283° |
| 2026-04-26 12:42 | 50.43097 | 4.56756 | 7554 ft | 261 kts | 284° |
| 2026-04-26 12:42 | 50.43536 | 4.53987 | 7239 ft | 261 kts | 284° |
| 2026-04-26 12:42 | 50.43974 | 4.51228 | 6947 ft | 261 kts | 283° |
| 2026-04-26 12:42 | 50.44409 | 4.48465 | 6656 ft | 260 kts | 283° |
| 2026-04-26 12:43 | 50.44841 | 4.45723 | 6369 ft | 258 kts | 283° |
| 2026-04-26 12:43 | 50.45272 | 4.42996 | 6106 ft | 258 kts | 283° |
| 2026-04-26 12:43 | 50.45704 | 4.40253 | 5781 ft | 259 kts | 283° |
| 2026-04-26 12:43 | 50.46126 | 4.37555 | 5517 ft | 256 kts | 283° |
| 2026-04-26 12:44 | 50.46550 | 4.34848 | 5281 ft | 252 kts | 283° |
| 2026-04-26 12:44 | 50.46957 | 4.32244 | 5289 ft | 236 kts | 283° |
| 2026-04-26 12:44 | 50.47334 | 4.29823 | 5211 ft | 224 kts | 283° |
| 2026-04-26 12:44 | 50.47434 | 4.27387 | 4785 ft | 226 kts | 257° |
| 2026-04-26 12:45 | 50.46911 | 4.25100 | 4465 ft | 223 kts | 247° |
| 2026-04-26 12:45 | 50.46309 | 4.22849 | 4070 ft | 223 kts | 246° |
| 2026-04-26 12:45 | 50.45675 | 4.20669 | 3655 ft | 222 kts | 237° |
| 2026-04-26 12:45 | 50.44531 | 4.19120 | 3299 ft | 217 kts | 201° |
| 2026-04-26 12:46 | 50.43122 | 4.18894 | 3290 ft | 194 kts | 168° |
| 2026-04-26 12:46 | 50.41956 | 4.19692 | 3192 ft | 180 kts | 143° |
| 2026-04-26 12:46 | 50.41278 | 4.21292 | 2946 ft | 171 kts | 102° |
| 2026-04-26 12:46 | 50.41160 | 4.23185 | 3122 ft | 179 kts | 90° |
| 2026-04-26 12:47 | 50.41274 | 4.25119 | 3094 ft | 176 kts | 80° |
| 2026-04-26 12:47 | 50.41512 | 4.26953 | 2878 ft | 165 kts | 78° |
| 2026-04-26 12:47 | 50.41775 | 4.28623 | 2700 ft | 149 kts | 75° |
| 2026-04-26 12:47 | 50.42054 | 4.30163 | 2495 ft | 145 kts | 74° |
| 2026-04-26 12:48 | 50.42355 | 4.31643 | 2341 ft | 147 kts | 72° |
| 2026-04-26 12:48 | 50.42653 | 4.33182 | 2184 ft | 147 kts | 76° |
| 2026-04-26 12:48 | 50.42938 | 4.34691 | 1945 ft | 141 kts | 71° |
| 2026-04-26 12:48 | 50.43297 | 4.36123 | 1798 ft | 143 kts | 66° |
| 2026-04-26 12:49 | 50.43728 | 4.37515 | 1580 ft | 141 kts | 64° |
| 2026-04-26 12:49 | 50.44156 | 4.38890 | 1344 ft | 137 kts | 66° |
| 2026-04-26 12:49 | 50.44533 | 4.40248 | 1154 ft | 137 kts | 68° |
| 2026-04-26 12:49 | 50.44919 | 4.41632 | 994 ft | 140 kts | 66° |
| 2026-04-26 12:50 | 50.45326 | 4.43025 | 820 ft | 140 kts | 65° |
| 2026-04-26 12:50 | 50.45731 | 4.44410 | 628 ft | 137 kts | 65° |
| 2026-04-26 12:50 | 50.46068 | 4.45569 | 597 ft | 83 kts | 65° |
| 2026-04-26 12:50 | 50.46233 | 4.46131 | 589 ft | 35 kts | 65° |
| 2026-04-26 12:51 | 50.46315 | 4.46415 | 585 ft | 25 kts | 66° |
| 2026-04-26 12:51 | 50.46380 | 4.46645 | 583 ft | 21 kts | 65° |
| 2026-04-26 12:51 | 50.46426 | 4.46801 | 582 ft | 11 kts | 65° |
| 2026-04-26 12:51 | 50.46474 | 4.46886 | 581 ft | 11 kts | 23° |
| 2026-04-26 12:52 | 50.46533 | 4.46878 | 581 ft | 8 kts | 336° |
| 2026-04-26 12:52 | 50.46575 | 4.46848 | 581 ft | 6 kts | 335° |
| 2026-04-26 12:52 | 50.46587 | 4.46839 | 581 ft | 2 kts | 335° |
| 2026-04-26 12:52 | 50.46605 | 4.46826 | 583 ft | 4 kts | 335° |
| 2026-04-26 12:53 | 50.46639 | 4.46802 | 581 ft | 6 kts | 335° |
| 2026-04-26 12:53 | 50.46679 | 4.46809 | 581 ft | 6 kts | 46° |
| 2026-04-26 12:53 | 50.46701 | 4.46877 | 582 ft | 8 kts | 64° |
| 2026-04-26 12:53 | 50.46724 | 4.46951 | 582 ft | 8 kts | 64° |
| 2026-04-26 12:54 | 50.46750 | 4.47037 | 582 ft | 10 kts | 64° |
| 2026-04-26 12:54 | 50.46777 | 4.47130 | 582 ft | 7 kts | 65° |
| 2026-04-26 12:54 | 50.46801 | 4.47147 | 581 ft | 4 kts | 349° |
| 2026-04-26 12:54 | 50.46832 | 4.47127 | 582 ft | 4 kts | 335° |
| 2026-04-26 12:55 | 50.46851 | 4.47113 | 581 ft | 3 kts | 335° |
| 2026-04-26 12:55 | 50.46864 | 4.47104 | 581 ft | 1 kts | 335° |
| 2026-04-26 12:55 | 50.46865 | 4.47103 | 581 ft | 0 kts | 335° |